createdAt,value
2023-01-20T00:06:28.473Z,14.70
2023-01-20T00:16:32.937Z,13.20
2023-01-20T00:26:36.687Z,13.50
2023-01-20T00:36:40.722Z,14.60
2023-01-20T00:46:46.388Z,15.20
2023-01-20T00:56:50.204Z,14.00
2023-01-20T01:06:54.224Z,15.20
2023-01-20T01:16:57.985Z,14.10
2023-01-20T01:27:01.667Z,13.30
2023-01-20T01:37:05.392Z,13.90
2023-01-20T01:47:10.345Z,12.00
2023-01-20T01:57:14.255Z,10.20
2023-01-20T02:07:21.694Z,9.70
2023-01-20T02:17:34.211Z,9.40
2023-01-20T02:27:56.563Z,9.30
2023-01-20T02:38:15.627Z,8.50
2023-01-20T02:48:19.445Z,8.50
2023-01-20T02:58:40.680Z,8.60
2023-01-20T03:08:46.590Z,8.60
2023-01-20T03:18:51.871Z,9.70
2023-01-20T03:28:56.059Z,9.30
2023-01-20T03:39:00.787Z,9.10
2023-01-20T03:49:23.189Z,9.30
2023-01-20T03:59:27.989Z,9.40
2023-01-20T04:09:47.760Z,9.10
2023-01-20T04:19:51.668Z,9.90
2023-01-20T04:29:55.501Z,10.50
2023-01-20T04:39:59.556Z,11.10
2023-01-20T04:50:09.104Z,11.90
2023-01-20T05:00:18.825Z,12.70
2023-01-20T05:10:22.822Z,11.90
2023-01-20T05:20:26.705Z,12.30
2023-01-20T05:30:30.510Z,13.00
2023-01-20T05:40:35.535Z,12.00
2023-01-20T05:50:39.319Z,11.00
2023-01-20T06:00:43.102Z,12.50
2023-01-20T06:10:50.580Z,11.30
2023-01-20T06:20:59.124Z,12.90
2023-01-20T06:31:05.916Z,12.80
2023-01-20T06:41:11.519Z,13.20
2023-01-20T06:51:17.918Z,12.10
2023-01-20T07:01:27.444Z,12.70
2023-01-20T07:11:31.757Z,13.40
2023-01-20T07:21:35.528Z,15.30
2023-01-20T07:31:40.661Z,14.80
2023-01-20T07:41:49.103Z,14.90
2023-01-20T07:51:52.910Z,15.50
2023-01-20T08:01:57.051Z,18.30
2023-01-20T08:12:02.464Z,19.40
2023-01-20T08:22:07.254Z,16.60
2023-01-20T08:32:11.001Z,17.60
2023-01-20T08:42:14.835Z,17.60
2023-01-20T08:52:19.218Z,19.40
2023-01-20T09:02:24.978Z,19.30
2023-01-20T09:12:28.750Z,18.70
2023-01-20T09:22:34.385Z,16.40
2023-01-20T09:32:38.624Z,16.70
2023-01-20T09:43:14.968Z,17.70
2023-01-20T09:53:26.015Z,15.00
2023-01-20T10:03:42.494Z,15.10
2023-01-20T10:13:56.634Z,14.30
2023-01-20T10:24:29.754Z,15.10
2023-01-20T10:34:54.918Z,15.10
2023-01-20T10:45:01.228Z,14.50
2023-01-20T10:55:22.217Z,13.30
2023-01-20T11:05:30.859Z,13.30
2023-01-20T11:15:38.540Z,14.20
2023-01-20T11:25:55.538Z,20.60
2023-01-20T11:36:01.102Z,18.30
2023-01-20T11:46:30.291Z,29.40
2023-01-20T11:56:43.066Z,21.70
2023-01-20T12:07:05.816Z,13.40
2023-01-20T12:17:31.938Z,15.90
2023-01-20T12:27:53.852Z,15.50
2023-01-20T12:38:06.447Z,14.40
2023-01-20T12:48:25.579Z,22.80
2023-01-20T12:58:44.357Z,14.40
2023-01-20T13:09:23.255Z,12.00
2023-01-20T13:19:49.724Z,16.50
2023-01-20T13:29:59.089Z,20.70
2023-01-20T13:40:06.006Z,18.30
2023-01-20T13:50:24.148Z,22.30
2023-01-20T14:00:27.906Z,17.60
2023-01-20T14:10:31.617Z,20.20
2023-01-20T14:20:37.940Z,18.00
2023-01-20T14:30:41.865Z,19.50
2023-01-20T14:40:51.775Z,17.90
2023-01-20T14:50:57.105Z,15.80
2023-01-20T15:01:06.977Z,14.20
2023-01-20T15:11:17.301Z,19.00
2023-01-20T15:21:28.323Z,16.30
2023-01-20T15:31:32.188Z,14.50
2023-01-20T15:41:36.306Z,16.00
2023-01-20T15:51:40.754Z,16.00
2023-01-20T16:01:50.401Z,13.90
2023-01-20T16:11:54.779Z,14.60
2023-01-20T16:21:58.853Z,12.70
2023-01-20T16:32:04.819Z,20.30
2023-01-20T16:42:16.230Z,14.50
2023-01-20T16:52:20.137Z,13.40
2023-01-20T17:02:24.585Z,15.00
2023-01-20T17:12:28.617Z,17.50
2023-01-20T17:22:32.940Z,13.30
2023-01-20T17:32:39.547Z,13.00
2023-01-20T17:42:44.473Z,12.20
2023-01-20T17:52:48.488Z,13.10
2023-01-20T18:02:55.797Z,12.60
2023-01-20T18:12:59.720Z,13.70
2023-01-20T18:23:03.545Z,13.90
2023-01-20T18:33:07.743Z,11.00
2023-01-20T18:43:11.821Z,11.80
2023-01-20T18:53:15.863Z,9.00
2023-01-20T19:03:20.586Z,13.80
2023-01-20T19:13:24.905Z,13.70
2023-01-20T19:23:29.863Z,10.00
2023-01-20T19:33:36.369Z,13.80
2023-01-20T19:43:40.740Z,11.60
2023-01-20T19:53:45.358Z,12.50
2023-01-20T20:03:50.943Z,10.00
2023-01-20T20:14:05.545Z,9.20
2023-01-20T20:24:12.745Z,9.70
2023-01-20T20:34:19.567Z,7.00
2023-01-20T20:44:24.609Z,9.70
2023-01-20T20:54:28.745Z,11.90
2023-01-20T21:04:32.914Z,9.80
2023-01-20T21:14:37.353Z,11.40
2023-01-20T21:24:42.177Z,13.30
2023-01-20T21:34:46.677Z,10.40
2023-01-20T21:44:51.260Z,11.80
2023-01-20T21:54:56.027Z,10.70
2023-01-20T22:05:14.710Z,10.80
2023-01-20T22:15:19.255Z,13.40
2023-01-20T22:25:23.569Z,12.90
2023-01-20T22:35:27.406Z,10.20
2023-01-20T22:45:31.373Z,9.40
2023-01-20T22:55:35.143Z,9.40
2023-01-20T23:05:40.858Z,8.50
2023-01-20T23:15:45.149Z,8.70
2023-01-20T23:25:48.849Z,7.90
2023-01-20T23:35:52.744Z,7.30
2023-01-20T23:46:01.297Z,9.00
2023-01-20T23:56:08.197Z,8.70
